Airports Croatia Split Airport

Split Airport (LDSP / SPU)

Facts about Split Airport

Name Split Airport
City Split
Country Croatia
ICAO code LDSP
IATA code SPU
Elevation 24.0792 meters (79 feet)

Weather

METAR

Metar data retrieved Saturday, 20 July 2024 at 00:25 UTC (16 minutes ago)

LDSP 200000Z AUTO 02004KT CAVOK 26/23 Q1010

Live traffic

Navigraph Charts (account required)